sensor_id;sensor_type;location;lat;lon;timestamp;pressure;altitude;pressure_sealevel;temperature;humidity
51249;BME280;39642;47.556;18.728;2024-03-23T00:56:19;99256.09;;;21.58;33.06
51249;BME280;39642;47.556;18.728;2024-03-23T00:58:45;99247.31;;;21.58;33.13
51249;BME280;39642;47.556;18.728;2024-03-23T01:01:11;99256.09;;;21.58;33.03
51249;BME280;39642;47.556;18.728;2024-03-23T01:03:37;99256.94;;;21.59;33.05
51249;BME280;39642;47.556;18.728;2024-03-23T01:06:03;99241.19;;;21.57;33.20
51249;BME280;39642;47.556;18.728;2024-03-23T01:08:32;99242.88;;;21.58;33.13
51249;BME280;39642;47.556;18.728;2024-03-23T01:10:58;99242.88;;;21.58;33.04
51249;BME280;39642;47.556;18.728;2024-03-23T01:13:25;99241.94;;;21.59;33.11
51249;BME280;39642;47.556;18.728;2024-03-23T01:15:52;99241.06;;;21.59;33.21
51249;BME280;39642;47.556;18.728;2024-03-23T01:18:18;99241.06;;;21.59;33.04
51249;BME280;39642;47.556;18.728;2024-03-23T01:20:44;99235.66;;;21.60;33.05
51249;BME280;39642;47.556;18.728;2024-03-23T01:23:11;99231.19;;;21.61;32.98
51249;BME280;39642;47.556;18.728;2024-03-23T01:25:37;99237.34;;;21.61;33.04
51249;BME280;39642;47.556;18.728;2024-03-23T01:28:04;99234.59;;;21.63;33.05
51249;BME280;39642;47.556;18.728;2024-03-23T01:30:30;99232.91;;;21.62;32.81
51249;BME280;39642;47.556;18.728;2024-03-23T01:32:56;99234.59;;;21.63;32.89
51249;BME280;39642;47.556;18.728;2024-03-23T01:35:22;99230.13;;;21.63;32.95
51249;BME280;39642;47.556;18.728;2024-03-23T01:37:48;99224.81;;;21.63;32.73
51249;BME280;39642;47.556;18.728;2024-03-23T01:40:13;99224.00;;;21.63;32.87
51249;BME280;39642;47.556;18.728;2024-03-23T01:42:39;99216.87;;;21.63;32.90
51249;BME280;39642;47.556;18.728;2024-03-23T01:45:09;99218.69;;;21.63;33.08
51249;BME280;39642;47.556;18.728;2024-03-23T01:47:38;99216.87;;;21.63;32.94
51249;BME280;39642;47.556;18.728;2024-03-23T01:50:04;99214.22;;;21.63;32.94
51249;BME280;39642;47.556;18.728;2024-03-23T01:52:30;99209.81;;;21.64;32.93
51249;BME280;39642;47.556;18.728;2024-03-23T01:54:56;99203.63;;;21.63;32.83
51249;BME280;39642;47.556;18.728;2024-03-23T01:57:22;99198.34;;;21.63;32.93
51249;BME280;39642;47.556;18.728;2024-03-23T01:59:48;99206.28;;;21.63;32.90
51249;BME280;39642;47.556;18.728;2024-03-23T02:02:14;99212.44;;;21.64;32.89
51249;BME280;39642;47.556;18.728;2024-03-23T02:04:43;99205.44;;;21.63;32.98
51249;BME280;39642;47.556;18.728;2024-03-23T02:07:09;99202.78;;;21.63;32.87
51249;BME280;39642;47.556;18.728;2024-03-23T02:09:35;99196.66;;;21.62;33.03
51249;BME280;39642;47.556;18.728;2024-03-23T02:12:04;99196.66;;;21.62;32.83
51249;BME280;39642;47.556;18.728;2024-03-23T02:14:30;99196.66;;;21.62;32.92
51249;BME280;39642;47.556;18.728;2024-03-23T02:16:56;99192.28;;;21.61;32.95
51249;BME280;39642;47.556;18.728;2024-03-23T02:19:22;99189.66;;;21.61;32.89
51249;BME280;39642;47.556;18.728;2024-03-23T02:21:51;99186.16;;;21.61;32.75
51249;BME280;39642;47.556;18.728;2024-03-23T02:24:16;99183.50;;;21.61;32.84
51249;BME280;39642;47.556;18.728;2024-03-23T02:26:42;99185.31;;;21.60;32.85
51249;BME280;39642;47.556;18.728;2024-03-23T02:29:08;99184.47;;;21.60;32.90
51249;BME280;39642;47.556;18.728;2024-03-23T02:31:35;99176.53;;;21.60;32.73
51249;BME280;39642;47.556;18.728;2024-03-23T02:34:01;99179.19;;;21.60;32.60
51249;BME280;39642;47.556;18.728;2024-03-23T02:36:28;99171.09;;;21.61;32.98
51249;BME280;39642;47.556;18.728;2024-03-23T02:38:54;99166.78;;;21.60;32.58
51249;BME280;39642;47.556;18.728;2024-03-23T02:41:20;99162.31;;;21.61;32.69
51249;BME280;39642;47.556;18.728;2024-03-23T02:43:49;99163.16;;;21.61;32.53
51249;BME280;39642;47.556;18.728;2024-03-23T02:46:15;99152.56;;;21.61;32.38
51249;BME280;39642;47.556;18.728;2024-03-23T02:48:41;99158.72;;;21.62;32.40
51249;BME280;39642;47.556;18.728;2024-03-23T02:51:07;99148.13;;;21.62;32.48
51249;BME280;39642;47.556;18.728;2024-03-23T02:53:33;99152.56;;;21.61;32.30
51249;BME280;39642;47.556;18.728;2024-03-23T02:55:59;99155.94;;;21.63;32.35
51249;BME280;39642;47.556;18.728;2024-03-23T02:58:25;99148.00;;;21.63;32.45
51249;BME280;39642;47.556;18.728;2024-03-23T03:00:51;99149.81;;;21.63;32.13
51249;BME280;39642;47.556;18.728;2024-03-23T03:03:17;99142.69;;;21.63;32.45
51249;BME280;39642;47.556;18.728;2024-03-23T03:05:43;99146.22;;;21.64;32.37
51249;BME280;39642;47.556;18.728;2024-03-23T03:08:09;99147.16;;;21.63;32.00
51249;BME280;39642;47.556;18.728;2024-03-23T03:10:35;99144.50;;;21.63;32.29
51249;BME280;39642;47.556;18.728;2024-03-23T03:13:02;99145.34;;;21.63;32.36
51249;BME280;39642;47.556;18.728;2024-03-23T03:15:28;99142.69;;;21.63;32.29
51249;BME280;39642;47.556;18.728;2024-03-23T03:17:54;99138.38;;;21.62;32.31
51249;BME280;39642;47.556;18.728;2024-03-23T03:20:20;99145.34;;;21.63;32.32
51249;BME280;39642;47.556;18.728;2024-03-23T03:22:47;99136.56;;;21.63;32.29
51249;BME280;39642;47.556;18.728;2024-03-23T03:25:14;99142.69;;;21.63;32.16
51249;BME280;39642;47.556;18.728;2024-03-23T03:27:40;99136.56;;;21.63;32.21
51249;BME280;39642;47.556;18.728;2024-03-23T03:30:06;99137.41;;;21.63;32.29
51249;BME280;39642;47.556;18.728;2024-03-23T03:32:35;99132.09;;;21.63;32.38
51249;BME280;39642;47.556;18.728;2024-03-23T03:35:01;99125.97;;;21.63;32.81
51249;BME280;39642;47.556;18.728;2024-03-23T03:37:27;99124.16;;;21.63;32.67
51249;BME280;39642;47.556;18.728;2024-03-23T03:39:52;99126.78;;;21.63;32.46
51249;BME280;39642;47.556;18.728;2024-03-23T03:42:18;99125.97;;;21.63;32.64
51249;BME280;39642;47.556;18.728;2024-03-23T03:44:44;99123.31;;;21.63;32.55
51249;BME280;39642;47.556;18.728;2024-03-23T03:47:10;99122.47;;;21.62;32.28
51249;BME280;39642;47.556;18.728;2024-03-23T03:49:36;99126.78;;;21.63;32.37
51249;BME280;39642;47.556;18.728;2024-03-23T03:52:02;99121.50;;;21.63;32.69
51249;BME280;39642;47.556;18.728;2024-03-23T03:54:28;99113.69;;;21.62;32.31
51249;BME280;39642;47.556;18.728;2024-03-23T03:56:54;99112.72;;;21.63;32.39
51249;BME280;39642;47.556;18.728;2024-03-23T03:59:19;99104.03;;;21.61;32.56
51249;BME280;39642;47.556;18.728;2024-03-23T04:01:46;99102.22;;;21.61;32.30
51249;BME280;39642;47.556;18.728;2024-03-23T04:04:12;99099.56;;;21.61;32.34
51249;BME280;39642;47.556;18.728;2024-03-23T04:06:39;99104.75;;;21.63;32.25
51249;BME280;39642;47.556;18.728;2024-03-23T04:09:05;99107.50;;;21.61;32.39
51249;BME280;39642;47.556;18.728;2024-03-23T04:11:32;99101.37;;;21.61;32.34
51249;BME280;39642;47.556;18.728;2024-03-23T04:13:58;99105.00;;;21.60;32.06
51249;BME280;39642;47.556;18.728;2024-03-23T04:16:33;99111.13;;;21.60;32.02
51249;BME280;39642;47.556;18.728;2024-03-23T04:19:00;99099.72;;;21.60;31.82
51249;BME280;39642;47.556;18.728;2024-03-23T04:21:26;99099.72;;;21.60;32.20
51249;BME280;39642;47.556;18.728;2024-03-23T04:23:52;99102.34;;;21.60;32.12
51249;BME280;39642;47.556;18.728;2024-03-23T04:26:18;99104.16;;;21.59;32.08
51249;BME280;39642;47.556;18.728;2024-03-23T04:28:43;99097.88;;;21.60;32.01
51249;BME280;39642;47.556;18.728;2024-03-23T04:31:09;99096.22;;;21.59;32.18
51249;BME280;39642;47.556;18.728;2024-03-23T04:33:35;99090.91;;;21.59;32.37
51249;BME280;39642;47.556;18.728;2024-03-23T04:36:01;99088.28;;;21.59;32.09
51249;BME280;39642;47.556;18.728;2024-03-23T04:38:28;99095.25;;;21.60;31.69
51249;BME280;39642;47.556;18.728;2024-03-23T04:40:58;99093.56;;;21.59;31.95
51249;BME280;39642;47.556;18.728;2024-03-23T04:43:27;99096.22;;;21.59;31.98
51249;BME280;39642;47.556;18.728;2024-03-23T04:45:54;99089.09;;;21.60;31.98
51249;BME280;39642;47.556;18.728;2024-03-23T04:48:23;99093.56;;;21.59;31.88
51249;BME280;39642;47.556;18.728;2024-03-23T04:50:49;99085.63;;;21.59;31.79
51249;BME280;39642;47.556;18.728;2024-03-23T04:53:19;99090.91;;;21.59;31.89
51249;BME280;39642;47.556;18.728;2024-03-23T04:55:45;99092.59;;;21.60;31.81
51249;BME280;39642;47.556;18.728;2024-03-23T04:58:11;99089.94;;;21.60;32.04
51249;BME280;39642;47.556;18.728;2024-03-23T05:00:37;99095.25;;;21.60;31.89
51249;BME280;39642;47.556;18.728;2024-03-23T05:03:03;99093.56;;;21.59;31.90
51249;BME280;39642;47.556;18.728;2024-03-23T05:05:30;99089.94;;;21.60;32.04
51249;BME280;39642;47.556;18.728;2024-03-23T05:07:56;99095.25;;;21.60;32.04
51249;BME280;39642;47.556;18.728;2024-03-23T05:10:21;99091.75;;;21.60;31.66
51249;BME280;39642;47.556;18.728;2024-03-23T05:12:47;99088.13;;;21.61;32.10
51249;BME280;39642;47.556;18.728;2024-03-23T05:15:13;99092.50;;;21.62;32.11
51249;BME280;39642;47.556;18.728;2024-03-23T05:17:39;99084.53;;;21.62;32.00
51249;BME280;39642;47.556;18.728;2024-03-23T05:20:05;99081.91;;;21.62;32.08
51249;BME280;39642;47.556;18.728;2024-03-23T05:22:36;99076.59;;;21.62;31.86
51249;BME280;39642;47.556;18.728;2024-03-23T05:25:02;99077.44;;;21.62;31.96
51249;BME280;39642;47.556;18.728;2024-03-23T05:27:32;99084.53;;;21.62;31.92
51249;BME280;39642;47.556;18.728;2024-03-23T05:29:58;99075.72;;;21.61;32.00
51249;BME280;39642;47.556;18.728;2024-03-23T05:32:24;99079.25;;;21.62;31.95
51249;BME280;39642;47.556;18.728;2024-03-23T05:34:50;99083.66;;;21.61;31.83
51249;BME280;39642;47.556;18.728;2024-03-23T05:37:22;99083.56;;;21.63;32.36
51249;BME280;39642;47.556;18.728;2024-03-23T05:39:48;99077.34;;;21.64;31.63
51249;BME280;39642;47.556;18.728;2024-03-23T05:42:18;99081.75;;;21.63;31.80
51249;BME280;39642;47.556;18.728;2024-03-23T05:44:45;99079.09;;;21.63;31.60
51249;BME280;39642;47.556;18.728;2024-03-23T05:47:11;99078.16;;;21.65;31.89
51249;BME280;39642;47.556;18.728;2024-03-23T05:49:42;99072.03;;;21.64;31.85
51249;BME280;39642;47.556;18.728;2024-03-23T05:52:09;99065.84;;;21.63;31.99
51249;BME280;39642;47.556;18.728;2024-03-23T05:54:35;99065.03;;;21.63;31.80
51249;BME280;39642;47.556;18.728;2024-03-23T05:57:02;99050.84;;;21.64;31.92
51249;BME280;39642;47.556;18.728;2024-03-23T05:59:28;99050.84;;;21.64;32.09
51249;BME280;39642;47.556;18.728;2024-03-23T06:01:54;99040.25;;;21.64;32.01
51249;BME280;39642;47.556;18.728;2024-03-23T06:04:20;99042.03;;;21.63;31.96
51249;BME280;39642;47.556;18.728;2024-03-23T06:06:48;99050.84;;;21.64;31.74
51249;BME280;39642;47.556;18.728;2024-03-23T06:09:14;99043.72;;;21.65;31.88
51249;BME280;39642;47.556;18.728;2024-03-23T06:11:40;99036.72;;;21.63;32.16
51249;BME280;39642;47.556;18.728;2024-03-23T06:14:06;99034.94;;;21.64;31.79
51249;BME280;39642;47.556;18.728;2024-03-23T06:16:32;99027.81;;;21.65;32.29
51249;BME280;39642;47.556;18.728;2024-03-23T06:18:57;99038.44;;;21.65;31.91
51249;BME280;39642;47.556;18.728;2024-03-23T06:21:24;99037.44;;;21.66;31.72
51249;BME280;39642;47.556;18.728;2024-03-23T06:23:54;99032.16;;;21.66;32.12
51249;BME280;39642;47.556;18.728;2024-03-23T06:26:20;99037.34;;;21.67;31.92
51249;BME280;39642;47.556;18.728;2024-03-23T06:28:47;99039.16;;;21.67;32.05
51249;BME280;39642;47.556;18.728;2024-03-23T06:31:13;99031.22;;;21.67;32.06
51249;BME280;39642;47.556;18.728;2024-03-23T06:33:39;99024.94;;;21.68;31.78
51249;BME280;39642;47.556;18.728;2024-03-23T06:36:09;99030.12;;;21.69;32.05
51249;BME280;39642;47.556;18.728;2024-03-23T06:38:36;99028.31;;;21.70;31.87
51249;BME280;39642;47.556;18.728;2024-03-23T06:41:05;99026.50;;;21.70;31.90
51249;BME280;39642;47.556;18.728;2024-03-23T06:43:31;99030.03;;;21.71;31.88
51249;BME280;39642;47.556;18.728;2024-03-23T06:45:57;99032.53;;;21.72;31.78
51249;BME280;39642;47.556;18.728;2024-03-23T06:48:23;99028.06;;;21.73;31.78
51249;BME280;39642;47.556;18.728;2024-03-23T06:50:49;99024.47;;;21.74;31.76
51249;BME280;39642;47.556;18.728;2024-03-23T06:53:15;99023.50;;;21.75;31.84
51249;BME280;39642;47.556;18.728;2024-03-23T06:55:41;99019.06;;;21.75;31.77
51249;BME280;39642;47.556;18.728;2024-03-23T06:58:07;99015.44;;;21.76;31.78
51249;BME280;39642;47.556;18.728;2024-03-23T07:00:34;99007.50;;;21.76;31.71
51249;BME280;39642;47.556;18.728;2024-03-23T07:03:00;99010.03;;;21.78;32.19
51249;BME280;39642;47.556;18.728;2024-03-23T07:05:26;99001.38;;;21.76;31.77
51249;BME280;39642;47.556;18.728;2024-03-23T07:07:52;99005.81;;;21.75;31.90
51249;BME280;39642;47.556;18.728;2024-03-23T07:10:18;98998.81;;;21.74;31.83
51249;BME280;39642;47.556;18.728;2024-03-23T07:12:44;98996.16;;;21.74;31.99
51249;BME280;39642;47.556;18.728;2024-03-23T07:15:10;98992.69;;;21.74;31.90
51249;BME280;39642;47.556;18.728;2024-03-23T07:17:36;98982.09;;;21.74;32.02
51249;BME280;39642;47.556;18.728;2024-03-23T07:20:02;98981.09;;;21.75;31.97
51249;BME280;39642;47.556;18.728;2024-03-23T07:22:30;98982.09;;;21.74;31.97
51249;BME280;39642;47.556;18.728;2024-03-23T07:24:56;98985.47;;;21.76;32.18
51249;BME280;39642;47.556;18.728;2024-03-23T07:27:22;98986.31;;;21.76;32.02
51249;BME280;39642;47.556;18.728;2024-03-23T07:29:49;98981.00;;;21.76;32.00
51249;BME280;39642;47.556;18.728;2024-03-23T07:32:15;98974.75;;;21.77;32.02
51249;BME280;39642;47.556;18.728;2024-03-23T07:34:41;98980.91;;;21.78;32.24
51249;BME280;39642;47.556;18.728;2024-03-23T07:37:10;98966.81;;;21.77;32.32
51249;BME280;39642;47.556;18.728;2024-03-23T07:39:36;98960.62;;;21.77;32.26
51249;BME280;39642;47.556;18.728;2024-03-23T07:42:03;98961.62;;;21.76;32.33
51249;BME280;39642;47.556;18.728;2024-03-23T07:44:28;98956.31;;;21.76;32.35
51249;BME280;39642;47.556;18.728;2024-03-23T07:46:54;98955.47;;;21.75;32.32
51249;BME280;39642;47.556;18.728;2024-03-23T07:49:20;98954.63;;;21.75;32.67
51249;BME280;39642;47.556;18.728;2024-03-23T07:51:46;98953.78;;;21.74;32.52
51249;BME280;39642;47.556;18.728;2024-03-23T07:54:12;98955.59;;;21.74;32.48
51249;BME280;39642;47.556;18.728;2024-03-23T07:56:38;98963.53;;;21.74;32.59
51249;BME280;39642;47.556;18.728;2024-03-23T07:59:04;98953.88;;;21.73;32.56
51249;BME280;39642;47.556;18.728;2024-03-23T08:01:30;98961.81;;;21.73;32.67
51249;BME280;39642;47.556;18.728;2024-03-23T08:03:55;98961.97;;;21.71;32.75
51249;BME280;39642;47.556;18.728;2024-03-23T08:06:21;98965.56;;;21.70;32.79
51249;BME280;39642;47.556;18.728;2024-03-23T08:08:49;98948.00;;;21.69;32.88
51249;BME280;39642;47.556;18.728;2024-03-23T08:11:16;98941.72;;;21.70;33.19
51249;BME280;39642;47.556;18.728;2024-03-23T08:13:42;98937.28;;;21.71;32.92
51249;BME280;39642;47.556;18.728;2024-03-23T08:16:10;98931.12;;;21.70;32.97
51249;BME280;39642;47.556;18.728;2024-03-23T08:18:37;98931.25;;;21.69;33.02
51249;BME280;39642;47.556;18.728;2024-03-23T08:21:04;98926.81;;;21.69;33.12
51249;BME280;39642;47.556;18.728;2024-03-23T08:23:32;98927.63;;;21.70;32.96
51249;BME280;39642;47.556;18.728;2024-03-23T08:26:06;98927.63;;;21.70;33.01
51249;BME280;39642;47.556;18.728;2024-03-23T08:28:32;98929.34;;;21.71;33.14
51249;BME280;39642;47.556;18.728;2024-03-23T08:31:03;98921.38;;;21.71;33.06
51249;BME280;39642;47.556;18.728;2024-03-23T08:33:29;98923.91;;;21.72;33.07
51249;BME280;39642;47.556;18.728;2024-03-23T08:35:57;98921.25;;;21.72;33.04
51249;BME280;39642;47.556;18.728;2024-03-23T08:38:24;98925.47;;;21.75;33.14
51249;BME280;39642;47.556;18.728;2024-03-23T08:41:10;98923.53;;;21.77;33.10
51249;BME280;39642;47.556;18.728;2024-03-23T08:43:37;98921.63;;;21.79;33.26
51249;BME280;39642;47.556;18.728;2024-03-23T08:46:14;98907.44;;;21.80;33.36
51249;BME280;39642;47.556;18.728;2024-03-23T08:48:44;98908.00;;;21.83;33.43
51249;BME280;39642;47.556;18.728;2024-03-23T08:51:15;98898.25;;;21.84;33.38
51249;BME280;39642;47.556;18.728;2024-03-23T08:53:42;98895.37;;;21.87;33.35
51249;BME280;39642;47.556;18.728;2024-03-23T08:56:09;98890.81;;;21.89;33.29
51249;BME280;39642;47.556;18.728;2024-03-23T08:58:36;98886.34;;;21.90;33.34
51249;BME280;39642;47.556;18.728;2024-03-23T09:01:05;98881.75;;;21.92;33.36
51249;BME280;39642;47.556;18.728;2024-03-23T09:03:30;98875.47;;;21.93;33.38
51249;BME280;39642;47.556;18.728;2024-03-23T09:05:57;98878.84;;;21.95;33.41
51249;BME280;39642;47.556;18.728;2024-03-23T09:08:24;98869.12;;;21.95;33.45
51249;BME280;39642;47.556;18.728;2024-03-23T09:10:50;98872.47;;;21.97;34.09
51249;BME280;39642;47.556;18.728;2024-03-23T09:13:16;98876.09;;;21.96;34.76
51249;BME280;39642;47.556;18.728;2024-03-23T09:15:47;98873.56;;;21.95;33.97
51249;BME280;39642;47.556;18.728;2024-03-23T09:18:13;98871.06;;;21.93;33.89
51249;BME280;39642;47.556;18.728;2024-03-23T09:20:39;98863.22;;;21.92;34.68
51249;BME280;39642;47.556;18.728;2024-03-23T09:23:04;98864.03;;;21.92;34.92
51249;BME280;39642;47.556;18.728;2024-03-23T09:25:30;98864.87;;;21.93;34.19
51249;BME280;39642;47.556;18.728;2024-03-23T09:27:57;98862.38;;;21.91;35.20
51249;BME280;39642;47.556;18.728;2024-03-23T09:30:23;98854.41;;;21.91;34.25
51249;BME280;39642;47.556;18.728;2024-03-23T09:32:49;98860.81;;;21.89;34.27
51249;BME280;39642;47.556;18.728;2024-03-23T09:35:15;98864.41;;;21.88;33.90
51249;BME280;39642;47.556;18.728;2024-03-23T09:37:41;98848.50;;;21.88;34.56
51249;BME280;39642;47.556;18.728;2024-03-23T09:40:11;98852.00;;;21.88;34.96
51249;BME280;39642;47.556;18.728;2024-03-23T09:42:37;98850.31;;;21.87;34.04
51249;BME280;39642;47.556;18.728;2024-03-23T09:45:09;98832.72;;;21.86;33.89
51249;BME280;39642;47.556;18.728;2024-03-23T09:47:37;98826.34;;;21.89;35.80
51249;BME280;39642;47.556;18.728;2024-03-23T09:50:03;98829.84;;;21.89;36.16
51249;BME280;39642;47.556;18.728;2024-03-23T09:52:30;98814.06;;;21.88;36.66
51249;BME280;39642;47.556;18.728;2024-03-23T09:54:57;98815.75;;;21.89;36.67
51249;BME280;39642;47.556;18.728;2024-03-23T09:57:23;98807.91;;;21.87;35.62
51249;BME280;39642;47.556;18.728;2024-03-23T09:59:48;98806.22;;;21.86;36.79
51249;BME280;39642;47.556;18.728;2024-03-23T10:02:15;98796.47;;;21.87;35.39
51249;BME280;39642;47.556;18.728;2024-03-23T10:04:42;98803.56;;;21.86;34.57
51249;BME280;39642;47.556;18.728;2024-03-23T10:07:19;98793.69;;;21.88;35.44
51249;BME280;39642;47.556;18.728;2024-03-23T10:09:46;98786.59;;;21.89;35.06
51249;BME280;39642;47.556;18.728;2024-03-23T10:12:15;98787.44;;;21.89;36.08
51249;BME280;39642;47.556;18.728;2024-03-23T10:14:41;98782.25;;;21.88;34.44
51249;BME280;39642;47.556;18.728;2024-03-23T10:17:16;98780.31;;;21.90;36.18
51249;BME280;39642;47.556;18.728;2024-03-23T10:19:46;98779.34;;;21.91;36.29
51249;BME280;39642;47.556;18.728;2024-03-23T10:22:14;98775.03;;;21.90;34.36
51249;BME280;39642;47.556;18.728;2024-03-23T10:24:43;98765.25;;;21.90;36.50
51249;BME280;39642;47.556;18.728;2024-03-23T10:27:09;98765.97;;;21.92;37.07
51249;BME280;39642;47.556;18.728;2024-03-23T10:29:35;98767.91;;;21.90;35.72
51249;BME280;39642;47.556;18.728;2024-03-23T10:32:08;98758.28;;;21.89;34.66
51249;BME280;39642;47.556;18.728;2024-03-23T10:34:34;98753.81;;;21.90;34.43
51249;BME280;39642;47.556;18.728;2024-03-23T10:37:02;98743.22;;;21.90;34.34
51249;BME280;39642;47.556;18.728;2024-03-23T10:39:32;98743.81;;;21.93;34.13
51249;BME280;39642;47.556;18.728;2024-03-23T10:42:03;98740.19;;;21.94;34.04
51249;BME280;39642;47.556;18.728;2024-03-23T10:44:29;98727.78;;;21.95;33.88
51249;BME280;39642;47.556;18.728;2024-03-23T10:47:00;98736.59;;;21.95;33.59
51249;BME280;39642;47.556;18.728;2024-03-23T10:49:28;98727.66;;;21.96;33.33
51249;BME280;39642;47.556;18.728;2024-03-23T10:52:02;98722.47;;;21.95;32.96
51249;BME280;39642;47.556;18.728;2024-03-23T10:54:29;98725.28;;;21.93;32.60
51249;BME280;39642;47.556;18.728;2024-03-23T10:57:17;98712.84;;;21.94;34.36
51249;BME280;39642;47.556;18.728;2024-03-23T10:59:44;98722.63;;;21.93;34.77
51249;BME280;39642;47.556;18.728;2024-03-23T11:02:20;98711.41;;;21.90;32.56
51249;BME280;39642;47.556;18.728;2024-03-23T11:04:46;98705.28;;;21.89;32.35
51249;BME280;39642;47.556;18.728;2024-03-23T11:09:53;98711.41;;;21.90;32.27
51249;BME280;39642;47.556;18.728;2024-03-23T11:14:50;98698.28;;;21.88;32.00
51249;BME280;39642;47.556;18.728;2024-03-23T11:17:26;98690.34;;;21.88;31.92
51249;BME280;39642;47.556;18.728;2024-03-23T11:25:13;98670.84;;;21.89;32.28
51249;BME280;39642;47.556;18.728;2024-03-23T11:27:39;98673.47;;;21.89;32.34
51249;BME280;39642;47.556;18.728;2024-03-23T11:30:18;98665.53;;;21.89;32.36
51249;BME280;39642;47.556;18.728;2024-03-23T11:32:48;98663.72;;;21.90;32.56
51249;BME280;39642;47.556;18.728;2024-03-23T11:35:33;98659.25;;;21.90;32.45
51249;BME280;39642;47.556;18.728;2024-03-23T11:40:29;98646.00;;;21.90;32.46
51249;BME280;39642;47.556;18.728;2024-03-23T11:42:58;98639.75;;;21.91;32.34
51249;BME280;39642;47.556;18.728;2024-03-23T11:45:25;98627.44;;;21.90;32.27
51249;BME280;39642;47.556;18.728;2024-03-23T11:50:35;98626.63;;;21.90;32.21
51249;BME280;39642;47.556;18.728;2024-03-23T11:55:51;98612.53;;;21.89;32.58
51249;BME280;39642;47.556;18.728;2024-03-23T11:58:19;98613.47;;;21.88;32.48
51249;BME280;39642;47.556;18.728;2024-03-23T12:00:53;98608.19;;;21.88;32.49
51249;BME280;39642;47.556;18.728;2024-03-23T12:03:19;98609.03;;;21.89;32.51
51249;BME280;39642;47.556;18.728;2024-03-23T12:05:52;98602.88;;;21.88;32.49
51249;BME280;39642;47.556;18.728;2024-03-23T12:08:29;98595.91;;;21.87;32.32
51249;BME280;39642;47.556;18.728;2024-03-23T12:11:11;98590.63;;;21.87;32.25
51249;BME280;39642;47.556;18.728;2024-03-23T12:13:39;98588.09;;;21.86;31.93
51249;BME280;39642;47.556;18.728;2024-03-23T12:16:11;98581.94;;;21.85;31.84
51249;BME280;39642;47.556;18.728;2024-03-23T12:18:38;98574.94;;;21.84;31.83
51249;BME280;39642;47.556;18.728;2024-03-23T12:21:06;98572.28;;;21.84;31.83
51249;BME280;39642;47.556;18.728;2024-03-23T12:23:33;98561.00;;;21.82;31.86
51249;BME280;39642;47.556;18.728;2024-03-23T12:25:59;98558.38;;;21.82;31.86
51249;BME280;39642;47.556;18.728;2024-03-23T12:28:25;98556.53;;;21.82;31.84
51249;BME280;39642;47.556;18.728;2024-03-23T12:30:52;98550.41;;;21.82;31.86
51249;BME280;39642;47.556;18.728;2024-03-23T12:33:18;98554.84;;;21.81;33.22
51249;BME280;39642;47.556;18.728;2024-03-23T12:35:44;98545.22;;;21.80;32.21
51249;BME280;39642;47.556;18.728;2024-03-23T12:38:10;98539.09;;;21.80;31.95
51249;BME280;39642;47.556;18.728;2024-03-23T12:40:36;98529.44;;;21.79;32.23
51249;BME280;39642;47.556;18.728;2024-03-23T12:43:02;98527.78;;;21.78;32.18
51249;BME280;39642;47.556;18.728;2024-03-23T12:45:28;98525.13;;;21.78;31.95
51249;BME280;39642;47.556;18.728;2024-03-23T12:47:54;98516.34;;;21.77;31.98
51249;BME280;39642;47.556;18.728;2024-03-23T12:50:20;98523.44;;;21.77;31.87
51249;BME280;39642;47.556;18.728;2024-03-23T12:52:46;98522.59;;;21.76;31.87
51249;BME280;39642;47.556;18.728;2024-03-23T12:55:12;98520.78;;;21.77;31.82
51249;BME280;39642;47.556;18.728;2024-03-23T12:57:38;98520.78;;;21.77;31.90
51249;BME280;39642;47.556;18.728;2024-03-23T13:00:05;98519.12;;;21.76;31.91
51249;BME280;39642;47.556;18.728;2024-03-23T13:02:32;98515.63;;;21.75;31.85
51249;BME280;39642;47.556;18.728;2024-03-23T13:05:00;98513.94;;;21.74;31.89
51249;BME280;39642;47.556;18.728;2024-03-23T13:07:26;98501.53;;;21.75;31.94
51249;BME280;39642;47.556;18.728;2024-03-23T13:09:53;98511.19;;;21.76;31.94
51249;BME280;39642;47.556;18.728;2024-03-23T13:12:19;98505.03;;;21.75;31.92
51249;BME280;39642;47.556;18.728;2024-03-23T13:14:46;98501.53;;;21.75;31.92
51249;BME280;39642;47.556;18.728;2024-03-23T13:17:13;98494.44;;;21.75;31.94
51249;BME280;39642;47.556;18.728;2024-03-23T13:19:39;98493.59;;;21.75;31.96
51249;BME280;39642;47.556;18.728;2024-03-23T13:22:05;98486.63;;;21.74;31.95
51249;BME280;39642;47.556;18.728;2024-03-23T13:24:31;98483.97;;;21.74;31.89
51249;BME280;39642;47.556;18.728;2024-03-23T13:26:57;98489.38;;;21.72;31.93
51249;BME280;39642;47.556;18.728;2024-03-23T13:29:24;98488.44;;;21.73;31.97
51249;BME280;39642;47.556;18.728;2024-03-23T13:31:51;98481.31;;;21.74;31.92
51249;BME280;39642;47.556;18.728;2024-03-23T13:34:18;98476.97;;;21.73;31.97
51249;BME280;39642;47.556;18.728;2024-03-23T13:36:44;98470.00;;;21.72;32.01
51249;BME280;39642;47.556;18.728;2024-03-23T13:39:11;98465.53;;;21.72;32.05
51249;BME280;39642;47.556;18.728;2024-03-23T13:41:41;98470.13;;;21.70;32.37
51249;BME280;39642;47.556;18.728;2024-03-23T13:44:08;98464.81;;;21.70;32.25
51249;BME280;39642;47.556;18.728;2024-03-23T13:46:38;98472.06;;;21.68;32.31
51249;BME280;39642;47.556;18.728;2024-03-23T13:49:05;98463.28;;;21.68;32.40
51249;BME280;39642;47.556;18.728;2024-03-23T13:51:32;98463.28;;;21.68;32.43
51249;BME280;39642;47.556;18.728;2024-03-23T13:53:58;98451.03;;;21.67;32.43
51249;BME280;39642;47.556;18.728;2024-03-23T13:56:28;98456.31;;;21.67;32.34
51249;BME280;39642;47.556;18.728;2024-03-23T13:58:57;98452.97;;;21.65;32.51
51249;BME280;39642;47.556;18.728;2024-03-23T14:01:23;98448.38;;;21.67;32.59
51249;BME280;39642;47.556;18.728;2024-03-23T14:03:49;98443.06;;;21.67;32.70